Time;durP1;ratioP1;P1;durP2;ratioP2;P2;SDS_P1;SDS_P2;PMS_P1;PMS_P2;Temp;Humidity;BMP_temperature;BMP_pressure;BME280_temperature;BME280_humidity;BME280_pressure;Samples;Min_cycle;Max_cycle;Signal;HPM_P1;HPM_P2
2022/05/31 00:01:32;;;;;;;11.70;6.85;;;;;;;;;;5082063;28;20040;-83
2022/05/31 00:04:18;;;;;;;11.30;6.13;;;;;;;;;;5075299;28;20048;-83
2022/05/31 00:07:04;;;;;;;12.70;6.82;;;;;;;;;;5081078;28;20044;-83
2022/05/31 00:09:49;;;;;;;12.68;6.95;;;;;;;;;;5081835;28;20041;-83
2022/05/31 00:12:35;;;;;;;10.13;6.18;;;;;;;;;;5081125;28;20040;-83
2022/05/31 00:15:21;;;;;;;14.82;7.28;;;;;;;;;;5081359;28;20049;-84
2022/05/31 00:18:08;;;;;;;12.35;6.95;;;;;;;;;;5075423;28;20040;-83
2022/05/31 00:20:54;;;;;;;13.18;6.35;;;;;;;;;;5074077;28;20041;-83
2022/05/31 00:23:42;;;;;;;11.07;6.57;;;;;;;;;;5089880;28;20051;-83
2022/05/31 00:26:27;;;;;;;10.48;6.90;;;;;;;;;;5086687;28;20055;-83
2022/05/31 00:29:13;;;;;;;9.43;6.72;;;;;;;;;;5095054;28;20048;-83
2022/05/31 00:32:02;;;;;;;11.00;6.88;;;;;;;;;;5101523;28;20051;-83
2022/05/31 00:34:50;;;;;;;10.38;6.43;;;;;;;;;;5094284;28;20044;-82
2022/05/31 00:37:36;;;;;;;11.90;6.35;;;;;;;;;;5101555;28;20048;-84
2022/05/31 00:40:25;;;;;;;14.27;5.93;;;;;;;;;;5101870;28;20044;-84
2022/05/31 00:43:14;;;;;;;13.07;6.55;;;;;;;;;;5102062;28;20043;-83
2022/05/31 00:46:03;;;;;;;9.48;6.15;;;;;;;;;;5095012;28;20471;-83
2022/05/31 00:48:55;;;;;;;12.35;5.53;;;;;;;;;;5101714;28;20390;-84
2022/05/31 00:51:45;;;;;;;13.07;6.00;;;;;;;;;;5101605;28;20674;-82
2022/05/31 00:54:33;;;;;;;8.52;5.60;;;;;;;;;;5094033;28;20044;-83
2022/05/31 00:57:18;;;;;;;8.73;6.15;;;;;;;;;;5086219;28;20044;-82
2022/05/31 01:00:15;;;;;;;17.35;6.22;;;;;;;;;;5086130;28;20051;-85
2022/05/31 01:03:01;;;;;;;7.68;5.93;;;;;;;;;;5085057;28;20044;-83
2022/05/31 01:05:47;;;;;;;10.07;5.97;;;;;;;;;;5086178;28;20450;-84
2022/05/31 01:08:34;;;;;;;9.93;5.90;;;;;;;;;;5086309;28;20047;-83
2022/05/31 01:11:46;;;;;;;16.00;5.85;;;;;;;;;;5080566;28;20228;-83
2022/05/31 01:14:54;;;;;;;11.30;5.72;;;;;;;;;;5100678;28;20394;-84
2022/05/31 01:21:59;;;;;;;11.63;5.97;;;;;;;;;;4929825;29;20491;-81
2022/05/31 01:25:01;;;;;;;13.80;6.40;;;;;;;;;;4928627;29;20051;-81
2022/05/31 01:27:58;;;;;;;14.68;6.30;;;;;;;;;;4941970;29;20052;-81
2022/05/31 01:31:02;;;;;;;7.70;6.03;;;;;;;;;;4936751;29;20056;-81
2022/05/31 01:33:54;;;;;;;9.65;5.70;;;;;;;;;;4941188;29;20052;-81
2022/05/31 01:36:47;;;;;;;10.52;5.55;;;;;;;;;;4942857;29;20056;-81
2022/05/31 01:39:47;;;;;;;10.60;5.88;;;;;;;;;;4936178;29;20056;-81
2022/05/31 01:42:43;;;;;;;13.40;5.82;;;;;;;;;;4936214;29;20044;-81
2022/05/31 01:45:35;;;;;;;8.40;5.68;;;;;;;;;;4942693;29;20048;-81
2022/05/31 01:48:21;;;;;;;15.35;6.90;;;;;;;;;;4927632;29;20490;-80
2022/05/31 01:51:06;;;;;;;14.18;7.53;;;;;;;;;;4936282;29;20056;-82
2022/05/31 01:53:53;;;;;;;14.10;7.22;;;;;;;;;;4935991;29;20043;-81
2022/05/31 01:56:42;;;;;;;17.50;7.10;;;;;;;;;;4927800;29;20055;-81
2022/05/31 01:59:42;;;;;;;17.33;7.10;;;;;;;;;;4941725;29;20403;-81
2022/05/31 02:02:27;;;;;;;11.63;6.72;;;;;;;;;;4940925;29;20087;-81
2022/05/31 02:05:14;;;;;;;16.40;7.25;;;;;;;;;;4915205;29;20052;-81
2022/05/31 02:08:03;;;;;;;11.80;7.25;;;;;;;;;;4945150;29;20426;-81
2022/05/31 02:10:51;;;;;;;18.58;7.57;;;;;;;;;;4944725;29;20056;-80
2022/05/31 02:13:37;;;;;;;11.05;7.25;;;;;;;;;;4940342;29;20043;-81
2022/05/31 02:16:28;;;;;;;15.68;7.47;;;;;;;;;;4931445;29;20048;-81
2022/05/31 02:19:48;;;;;;;10.45;6.80;;;;;;;;;;4905260;29;20049;-80
2022/05/31 02:22:38;;;;;;;13.25;7.15;;;;;;;;;;4944868;29;20390;-80
2022/05/31 02:25:24;;;;;;;10.85;6.72;;;;;;;;;;4931293;29;20059;-81
2022/05/31 02:28:09;;;;;;;13.50;6.30;;;;;;;;;;4931167;29;20052;-81
2022/05/31 02:30:55;;;;;;;14.55;6.47;;;;;;;;;;4945420;29;20055;-80
2022/05/31 02:33:41;;;;;;;9.77;5.93;;;;;;;;;;4939615;29;20052;-81
2022/05/31 02:36:27;;;;;;;9.90;6.18;;;;;;;;;;4944519;29;20491;-81
2022/05/31 02:39:12;;;;;;;9.95;5.70;;;;;;;;;;4939089;29;20056;-81
2022/05/31 02:42:02;;;;;;;9.95;6.38;;;;;;;;;;4944403;29;20402;-81
2022/05/31 02:44:47;;;;;;;10.05;5.75;;;;;;;;;;4944410;29;20471;-81
2022/05/31 02:47:33;;;;;;;8.60;5.32;;;;;;;;;;4939142;29;20060;-81
2022/05/31 02:50:18;;;;;;;9.35;4.50;;;;;;;;;;4938698;29;20044;-81
2022/05/31 02:53:04;;;;;;;8.73;4.15;;;;;;;;;;4930901;29;20043;-81
2022/05/31 02:55:49;;;;;;;8.95;5.30;;;;;;;;;;4931019;29;20056;-82
2022/05/31 02:59:09;;;;;;;10.25;4.85;;;;;;;;;;4939084;29;20471;-81
2022/05/31 03:02:13;;;;;;;10.52;5.28;;;;;;;;;;4938747;29;20061;-81
2022/05/31 03:05:18;;;;;;;5.97;4.22;;;;;;;;;;4938622;29;20413;-81
2022/05/31 03:08:23;;;;;;;11.55;4.70;;;;;;;;;;4938751;29;20039;-82
2022/05/31 03:11:22;;;;;;;5.80;4.32;;;;;;;;;;4944016;29;20055;-81
2022/05/31 03:14:10;;;;;;;10.43;4.75;;;;;;;;;;4941780;29;20044;-81
2022/05/31 03:17:12;;;;;;;11.57;4.82;;;;;;;;;;4940591;29;20052;-81
2022/05/31 03:20:09;;;;;;;8.82;4.93;;;;;;;;;;4944038;29;20055;-81
2022/05/31 03:23:11;;;;;;;7.10;4.47;;;;;;;;;;4944864;29;20044;-81
2022/05/31 03:26:00;;;;;;;9.48;4.85;;;;;;;;;;4938097;29;20048;-80
2022/05/31 03:28:45;;;;;;;9.02;4.90;;;;;;;;;;4944595;29;20048;-81
2022/05/31 03:31:31;;;;;;;8.52;4.97;;;;;;;;;;4944445;29;20486;-81
2022/05/31 03:34:17;;;;;;;10.98;5.82;;;;;;;;;;4937894;29;20470;-81
2022/05/31 03:37:04;;;;;;;16.17;5.95;;;;;;;;;;4930371;29;20047;-81
2022/05/31 03:39:51;;;;;;;15.55;6.95;;;;;;;;;;4929914;29;20478;-81
2022/05/31 03:42:36;;;;;;;24.58;7.18;;;;;;;;;;4943045;29;20047;-81
2022/05/31 03:45:22;;;;;;;11.15;6.05;;;;;;;;;;4929851;29;20075;-80
2022/05/31 03:48:28;;;;;;;12.40;6.35;;;;;;;;;;4944009;29;20055;-80
2022/05/31 03:51:18;;;;;;;10.88;5.70;;;;;;;;;;4943317;29;20056;-81
2022/05/31 03:54:05;;;;;;;11.23;6.57;;;;;;;;;;4941226;29;20052;-81
2022/05/31 03:57:18;;;;;;;10.38;5.95;;;;;;;;;;4936761;29;20040;-80
2022/05/31 04:00:31;;;;;;;19.02;8.60;;;;;;;;;;4910496;29;20052;-81
2022/05/31 04:03:41;;;;;;;16.35;8.98;;;;;;;;;;4920328;29;20402;-80
2022/05/31 04:06:26;;;;;;;12.10;7.60;;;;;;;;;;4942532;29;20048;-80
2022/05/31 04:09:11;;;;;;;13.80;7.40;;;;;;;;;;4943028;29;20060;-80
2022/05/31 04:11:59;;;;;;;19.10;6.80;;;;;;;;;;4942741;29;20055;-81
2022/05/31 04:15:03;;;;;;;12.07;7.00;;;;;;;;;;4937234;29;20047;-82
2022/05/31 04:17:49;;;;;;;9.23;7.00;;;;;;;;;;4929263;29;20471;-81
2022/05/31 04:20:41;;;;;;;10.77;6.10;;;;;;;;;;4936943;29;20048;-81
2022/05/31 04:26:51;;;;;;;12.38;6.85;;;;;;;;;;4919639;29;20714;-81
2022/05/31 04:29:55;;;;;;;13.15;6.70;;;;;;;;;;4942902;29;20422;-81
2022/05/31 04:33:00;;;;;;;12.23;7.65;;;;;;;;;;4936887;29;20056;-81
2022/05/31 04:35:59;;;;;;;18.73;9.60;;;;;;;;;;4947072;28;20051;-80
2022/05/31 04:38:45;;;;;;;20.85;10.38;;;;;;;;;;4961798;28;20071;-81
2022/05/31 04:41:38;;;;;;;20.48;9.80;;;;;;;;;;4947935;28;20051;-81
2022/05/31 04:44:27;;;;;;;15.32;9.25;;;;;;;;;;4946407;28;20486;-81
2022/05/31 04:47:12;;;;;;;13.30;8.23;;;;;;;;;;4961002;28;20478;-81
2022/05/31 04:50:02;;;;;;;17.52;7.80;;;;;;;;;;4961227;28;20048;-81
2022/05/31 04:52:51;;;;;;;13.55;7.20;;;;;;;;;;4957912;28;20052;-81
2022/05/31 04:55:37;;;;;;;15.43;7.72;;;;;;;;;;4934268;29;20048;-81
2022/05/31 04:58:24;;;;;;;17.63;7.60;;;;;;;;;;4928870;29;20051;-80
2022/05/31 05:01:09;;;;;;;10.63;6.97;;;;;;;;;;4947554;28;20051;-81
2022/05/31 05:03:58;;;;;;;9.88;6.70;;;;;;;;;;4947474;28;20466;-82
2022/05/31 05:06:44;;;;;;;14.95;6.68;;;;;;;;;;4960397;28;20043;-82
2022/05/31 05:09:31;;;;;;;25.15;7.80;;;;;;;;;;4947547;28;20051;-81
2022/05/31 05:12:38;;;;;;;19.73;7.35;;;;;;;;;;4955502;29;20047;-82
2022/05/31 05:15:55;;;;;;;17.60;6.60;;;;;;;;;;4925605;29;20043;-82
2022/05/31 05:18:43;;;;;;;16.50;7.25;;;;;;;;;;4961807;28;20397;-82
2022/05/31 05:21:28;;;;;;;14.35;7.10;;;;;;;;;;4955562;28;20047;-81
2022/05/31 05:24:14;;;;;;;17.02;8.63;;;;;;;;;;4960800;28;20043;-83
2022/05/31 05:27:10;;;;;;;23.80;10.88;;;;;;;;;;4947763;28;20402;-81
2022/05/31 05:33:30;;;;;;;20.23;10.90;;;;;;;;;;4947436;29;20047;-80
2022/05/31 05:36:36;;;;;;;24.85;11.75;;;;;;;;;;4961487;29;20043;-81
2022/05/31 05:39:21;;;;;;;28.80;12.98;;;;;;;;;;4960505;29;20047;-81
2022/05/31 05:42:25;;;;;;;26.60;13.27;;;;;;;;;;4955281;28;20051;-81
2022/05/31 05:45:23;;;;;;;32.13;13.77;;;;;;;;;;4958932;29;20478;-81
2022/05/31 05:48:08;;;;;;;33.03;15.40;;;;;;;;;;4959277;29;20474;-82
2022/05/31 05:50:55;;;;;;;31.95;16.08;;;;;;;;;;4959558;29;20043;-82
2022/05/31 05:54:02;;;;;;;34.53;17.52;;;;;;;;;;4962836;29;20047;-82
2022/05/31 05:57:06;;;;;;;39.75;17.35;;;;;;;;;;4959298;29;20039;-81
2022/05/31 06:00:10;;;;;;;40.17;17.15;;;;;;;;;;4958752;29;20047;-82
2022/05/31 06:03:17;;;;;;;41.70;18.70;;;;;;;;;;4957909;29;20047;-82
2022/05/31 06:06:25;;;;;;;35.83;18.17;;;;;;;;;;4956361;29;20047;-81
2022/05/31 06:09:21;;;;;;;35.17;18.15;;;;;;;;;;4964878;28;20486;-81
2022/05/31 06:12:13;;;;;;;47.03;19.00;;;;;;;;;;4950322;28;20055;-82
2022/05/31 06:15:04;;;;;;;55.35;21.10;;;;;;;;;;4950678;28;20051;-83
2022/05/31 06:17:53;;;;;;;39.83;19.52;;;;;;;;;;4950275;28;20051;-81
2022/05/31 06:20:39;;;;;;;34.83;18.98;;;;;;;;;;4945698;29;20051;-81
2022/05/31 06:23:25;;;;;;;40.53;19.33;;;;;;;;;;4950541;28;20478;-82
2022/05/31 06:26:12;;;;;;;40.45;18.67;;;;;;;;;;4949818;28;20043;-81
2022/05/31 06:29:00;;;;;;;40.50;18.70;;;;;;;;;;4950288;28;20483;-81
2022/05/31 06:31:45;;;;;;;34.55;18.13;;;;;;;;;;4950723;28;20055;-81
2022/05/31 06:34:41;;;;;;;36.83;18.38;;;;;;;;;;4950285;28;20402;-81
2022/05/31 06:37:56;;;;;;;35.80;18.05;;;;;;;;;;4944494;29;20055;-81
2022/05/31 06:40:42;;;;;;;37.15;17.55;;;;;;;;;;4950153;28;20051;-81
2022/05/31 06:43:46;;;;;;;38.92;18.50;;;;;;;;;;4958328;29;20430;-81
2022/05/31 06:46:50;;;;;;;35.88;16.63;;;;;;;;;;4958508;29;20043;-80
2022/05/31 06:50:01;;;;;;;36.83;17.23;;;;;;;;;;4945600;29;20467;-81
2022/05/31 06:59:34;;;;;;;25.83;15.45;;;;;;;;;;4958301;29;20393;-81
2022/05/31 07:02:19;;;;;;;34.60;16.20;;;;;;;;;;4949322;28;20047;-81
2022/05/31 07:05:06;;;;;;;32.30;15.55;;;;;;;;;;4950222;28;20489;-81
2022/05/31 07:07:52;;;;;;;29.80;15.25;;;;;;;;;;4963439;28;20047;-81
2022/05/31 07:11:00;;;;;;;38.72;15.05;;;;;;;;;;4957941;28;20490;-80
2022/05/31 07:14:03;;;;;;;27.65;15.00;;;;;;;;;;4958101;29;20115;-81
2022/05/31 07:17:09;;;;;;;26.38;15.52;;;;;;;;;;4957086;29;20043;-82
2022/05/31 07:20:10;;;;;;;30.88;16.35;;;;;;;;;;4962085;28;20052;-81
2022/05/31 07:22:56;;;;;;;28.90;16.02;;;;;;;;;;4948943;28;20055;-80
2022/05/31 07:25:52;;;;;;;30.95;16.98;;;;;;;;;;4963986;28;20046;-80
2022/05/31 07:28:43;;;;;;;35.35;15.88;;;;;;;;;;4963242;28;20051;-80
2022/05/31 07:31:28;;;;;;;29.08;16.00;;;;;;;;;;4949228;28;20051;-80
2022/05/31 07:34:23;;;;;;;29.25;16.73;;;;;;;;;;4949396;28;20067;-81
2022/05/31 07:37:09;;;;;;;27.35;16.98;;;;;;;;;;4962099;28;20051;-80
2022/05/31 07:39:55;;;;;;;29.75;16.70;;;;;;;;;;4949044;28;20047;-81
2022/05/31 07:42:41;;;;;;;30.27;17.63;;;;;;;;;;4963162;28;20047;-81
2022/05/31 07:45:27;;;;;;;25.20;17.45;;;;;;;;;;4949336;28;20055;-82
2022/05/31 07:48:14;;;;;;;27.63;16.48;;;;;;;;;;4948919;28;20047;-81
2022/05/31 07:51:01;;;;;;;24.58;16.50;;;;;;;;;;4948956;28;20047;-81
2022/05/31 07:54:24;;;;;;;28.67;17.67;;;;;;;;;;4963522;28;20051;-81
2022/05/31 08:00:43;;;;;;;34.85;17.75;;;;;;;;;;4956962;29;20051;-81
2022/05/31 08:03:30;;;;;;;31.50;17.23;;;;;;;;;;4948469;28;20047;-81
2022/05/31 08:06:22;;;;;;;28.10;16.95;;;;;;;;;;4956047;29;20482;-81
2022/05/31 08:09:07;;;;;;;30.58;17.73;;;;;;;;;;4956868;29;20043;-82
2022/05/31 08:11:52;;;;;;;27.50;16.92;;;;;;;;;;4962903;28;20051;-81
2022/05/31 08:14:38;;;;;;;28.63;18.00;;;;;;;;;;4955884;29;20036;-81
2022/05/31 08:17:24;;;;;;;29.75;19.48;;;;;;;;;;4956476;29;20048;-81
2022/05/31 08:20:10;;;;;;;31.70;18.63;;;;;;;;;;4946587;28;20479;-80
2022/05/31 08:22:55;;;;;;;31.88;18.45;;;;;;;;;;4956430;29;20491;-80
2022/05/31 08:25:41;;;;;;;26.35;16.98;;;;;;;;;;4956171;29;20051;-80
2022/05/31 08:28:26;;;;;;;31.73;19.10;;;;;;;;;;4956853;29;20047;-81
2022/05/31 08:31:14;;;;;;;30.67;17.60;;;;;;;;;;4957557;29;20043;-80
2022/05/31 08:33:59;;;;;;;29.63;17.85;;;;;;;;;;4959119;29;20047;-80
2022/05/31 08:36:45;;;;;;;30.33;19.02;;;;;;;;;;4956783;29;20047;-81
2022/05/31 08:39:31;;;;;;;28.92;18.05;;;;;;;;;;4955532;29;20039;-79
2022/05/31 08:42:44;;;;;;;33.30;18.65;;;;;;;;;;4956227;29;20055;-80
2022/05/31 08:45:34;;;;;;;34.35;18.63;;;;;;;;;;4962508;28;20043;-81
2022/05/31 08:48:31;;;;;;;33.80;20.55;;;;;;;;;;4962216;28;20051;-81
2022/05/31 09:07:45;;;;;;;27.92;17.20;;;;;;;;;;5071546;27;1362602;-74
2022/05/31 09:10:36;;;;;;;29.70;17.88;;;;;;;;;;5156690;27;20050;-78
2022/05/31 09:13:46;;;;;;;24.92;16.38;;;;;;;;;;5152834;27;20039;-76
2022/05/31 09:16:34;;;;;;;27.10;15.65;;;;;;;;;;5153069;27;20043;-79
2022/05/31 09:19:38;;;;;;;27.48;16.33;;;;;;;;;;5152759;27;20039;-81
2022/05/31 09:22:24;;;;;;;26.55;16.23;;;;;;;;;;5159672;27;20051;-76
2022/05/31 09:25:10;;;;;;;25.27;16.08;;;;;;;;;;5152683;27;20035;-77
2022/05/31 09:27:55;;;;;;;27.25;15.57;;;;;;;;;;5152730;27;20039;-75
2022/05/31 09:30:43;;;;;;;27.48;17.60;;;;;;;;;;5152342;27;20043;-73
2022/05/31 09:33:37;;;;;;;31.25;18.48;;;;;;;;;;5159266;27;20039;-74
2022/05/31 09:36:37;;;;;;;36.92;19.90;;;;;;;;;;5159332;27;20050;-75
2022/05/31 09:39:26;;;;;;;35.08;18.92;;;;;;;;;;5152462;27;20035;-77
2022/05/31 09:42:26;;;;;;;31.52;18.52;;;;;;;;;;5152366;27;20043;-76
2022/05/31 09:45:17;;;;;;;35.20;21.08;;;;;;;;;;5159123;27;20035;-76
2022/05/31 09:48:07;;;;;;;29.00;16.42;;;;;;;;;;5129567;27;20042;-76
2022/05/31 09:50:58;;;;;;;34.35;19.33;;;;;;;;;;5152137;27;20042;-76
2022/05/31 09:57:28;;;;;;;23.25;13.52;;;;;;;;;;5088347;28;20045;-77
2022/05/31 10:00:21;;;;;;;26.42;16.13;;;;;;;;;;5088100;28;20048;-76
2022/05/31 10:03:13;;;;;;;35.65;18.05;;;;;;;;;;5147294;27;20483;-76
2022/05/31 10:06:17;;;;;;;29.67;15.55;;;;;;;;;;5157185;27;20035;-77
2022/05/31 10:09:17;;;;;;;23.53;15.37;;;;;;;;;;5137883;27;20035;-76
2022/05/31 10:12:31;;;;;;;26.38;15.68;;;;;;;;;;5122913;27;20043;-77
2022/05/31 10:15:50;;;;;;;19.20;9.65;;;;;;;;;;5144519;27;20391;-76
2022/05/31 10:18:50;;;;;;;19.60;12.27;;;;;;;;;;5144370;27;20047;-77
2022/05/31 10:21:41;;;;;;;14.75;9.55;;;;;;;;;;5144780;27;20047;-76
2022/05/31 10:24:28;;;;;;;15.70;9.60;;;;;;;;;;5137492;27;20035;-77
2022/05/31 10:27:33;;;;;;;21.25;10.48;;;;;;;;;;5124771;27;20047;-76
2022/05/31 10:30:23;;;;;;;17.52;10.38;;;;;;;;;;5128889;27;20035;-76
2022/05/31 10:33:23;;;;;;;18.33;9.77;;;;;;;;;;5123336;27;20047;-76
2022/05/31 10:36:18;;;;;;;12.90;9.25;;;;;;;;;;5137232;27;20043;-76
2022/05/31 10:39:11;;;;;;;15.25;11.15;;;;;;;;;;5144201;27;20038;-76
2022/05/31 10:41:59;;;;;;;22.00;12.07;;;;;;;;;;5143913;27;20400;-76
2022/05/31 10:44:51;;;;;;;35.70;12.80;;;;;;;;;;5144087;27;20044;-76
2022/05/31 10:47:36;;;;;;;30.30;14.30;;;;;;;;;;5128567;27;20047;-77
2022/05/31 10:50:33;;;;;;;27.88;15.93;;;;;;;;;;5144091;27;20471;-77
2022/05/31 10:53:34;;;;;;;24.80;15.18;;;;;;;;;;5136911;27;20073;-77
2022/05/31 10:56:25;;;;;;;26.63;13.75;;;;;;;;;;5137134;27;20043;-77
2022/05/31 10:59:28;;;;;;;24.80;12.30;;;;;;;;;;5136666;27;20035;-77
2022/05/31 11:02:32;;;;;;;22.45;13.68;;;;;;;;;;5136443;27;20047;-77
2022/05/31 11:05:21;;;;;;;20.02;14.20;;;;;;;;;;5136574;27;20487;-77
2022/05/31 11:11:55;;;;;;;22.42;13.55;;;;;;;;;;5136550;27;20047;-78
2022/05/31 11:14:55;;;;;;;24.70;14.05;;;;;;;;;;5143762;27;20036;-78
2022/05/31 11:17:50;;;;;;;20.42;13.70;;;;;;;;;;5143491;27;20043;-79
2022/05/31 11:20:41;;;;;;;25.85;13.40;;;;;;;;;;5147936;27;20047;-77
2022/05/31 11:24:06;;;;;;;21.45;13.32;;;;;;;;;;5147850;27;20399;-77
2022/05/31 11:27:00;;;;;;;21.05;12.13;;;;;;;;;;5142911;27;20051;-79
2022/05/31 11:30:15;;;;;;;17.98;11.85;;;;;;;;;;5136461;27;20332;-77
2022/05/31 11:33:16;;;;;;;16.80;11.32;;;;;;;;;;5135917;27;20039;-77
2022/05/31 11:36:28;;;;;;;33.70;12.52;;;;;;;;;;5136255;27;20476;-77
2022/05/31 11:39:32;;;;;;;18.52;12.13;;;;;;;;;;5143082;27;20046;-77
2022/05/31 11:42:42;;;;;;;17.10;11.43;;;;;;;;;;5136037;27;20043;-77
2022/05/31 11:45:48;;;;;;;19.55;11.85;;;;;;;;;;5135320;27;20395;-77
2022/05/31 11:48:58;;;;;;;23.48;13.45;;;;;;;;;;5148825;27;20059;-80
2022/05/31 11:52:15;;;;;;;13.18;8.43;;;;;;;;;;5146456;27;20399;-79
2022/05/31 11:58:33;;;;;;;12.13;8.70;;;;;;;;;;5148292;27;20043;-78
2022/05/31 12:01:34;;;;;;;9.25;7.00;;;;;;;;;;5140299;27;20389;-81
2022/05/31 12:04:37;;;;;;;11.68;7.63;;;;;;;;;;5142328;27;20495;-78
2022/05/31 12:07:43;;;;;;;12.73;8.45;;;;;;;;;;5146759;27;20051;-78
2022/05/31 12:10:32;;;;;;;12.63;7.25;;;;;;;;;;5145801;27;20484;-78
2022/05/31 12:13:18;;;;;;;8.55;6.30;;;;;;;;;;5138433;27;20040;-78
2022/05/31 12:16:06;;;;;;;10.68;5.97;;;;;;;;;;5146300;27;20051;-78
2022/05/31 12:18:52;;;;;;;9.23;5.80;;;;;;;;;;5140760;27;20051;-79
2022/05/31 12:21:42;;;;;;;7.70;5.07;;;;;;;;;;5142647;27;20039;-82
2022/05/31 12:24:43;;;;;;;8.02;4.90;;;;;;;;;;5135206;27;20043;-82
2022/05/31 12:27:36;;;;;;;6.18;4.38;;;;;;;;;;5135378;27;20403;-76
2022/05/31 12:30:32;;;;;;;6.60;4.35;;;;;;;;;;5141369;27;20035;-78
2022/05/31 12:33:50;;;;;;;5.93;4.78;;;;;;;;;;5135241;27;20047;-78
2022/05/31 12:36:55;;;;;;;8.30;5.72;;;;;;;;;;5142339;27;20055;-78
2022/05/31 12:39:43;;;;;;;9.38;6.80;;;;;;;;;;5135691;27;20043;-78
2022/05/31 12:42:38;;;;;;;9.70;7.20;;;;;;;;;;5141837;27;20039;-75
2022/05/31 12:45:37;;;;;;;10.35;7.30;;;;;;;;;;5134971;27;20483;-78
2022/05/31 12:48:25;;;;;;;13.85;7.22;;;;;;;;;;5134659;27;20043;-77
2022/05/31 12:51:22;;;;;;;13.80;8.20;;;;;;;;;;5141283;27;20050;-76
2022/05/31 12:54:11;;;;;;;11.57;8.10;;;;;;;;;;5133888;28;20035;-76
2022/05/31 12:56:58;;;;;;;12.52;8.35;;;;;;;;;;5141397;27;20047;-75
2022/05/31 12:59:49;;;;;;;9.68;7.35;;;;;;;;;;5141486;27;20428;-75
2022/05/31 13:02:37;;;;;;;10.95;6.93;;;;;;;;;;5134467;28;20047;-76
2022/05/31 13:05:38;;;;;;;11.80;7.32;;;;;;;;;;5141366;27;20476;-77
2022/05/31 13:08:52;;;;;;;10.95;6.90;;;;;;;;;;5134761;27;20495;-77
2022/05/31 13:20:59;;;;;;;9.23;5.50;;;;;;;;;;5134671;28;20043;-80
2022/05/31 13:23:46;;;;;;;6.45;5.03;;;;;;;;;;5134660;28;20035;-81
2022/05/31 13:26:33;;;;;;;10.48;6.85;;;;;;;;;;5134179;28;20035;-81
2022/05/31 13:29:23;;;;;;;9.38;6.20;;;;;;;;;;5134592;28;20046;-79
2022/05/31 13:32:11;;;;;;;8.90;6.00;;;;;;;;;;5133522;28;20051;-80
2022/05/31 13:34:56;;;;;;;9.90;6.43;;;;;;;;;;5133214;27;20047;-80
2022/05/31 13:38:04;;;;;;;11.70;7.07;;;;;;;;;;5141488;27;20043;-80
2022/05/31 13:40:54;;;;;;;9.40;6.50;;;;;;;;;;5134345;28;20039;-79
2022/05/31 13:43:54;;;;;;;9.98;6.82;;;;;;;;;;5137863;27;20046;-80
2022/05/31 13:46:45;;;;;;;9.68;5.88;;;;;;;;;;5137951;27;20039;-79
2022/05/31 13:49:37;;;;;;;10.20;5.55;;;;;;;;;;5138360;27;20384;-79
2022/05/31 13:52:27;;;;;;;7.30;4.70;;;;;;;;;;5138178;27;20051;-78
2022/05/31 13:55:19;;;;;;;5.78;3.80;;;;;;;;;;5140316;27;20391;-78
2022/05/31 13:58:05;;;;;;;5.30;4.00;;;;;;;;;;5131152;27;20408;-82
2022/05/31 14:00:50;;;;;;;19.27;10.23;;;;;;;;;;5145573;27;20035;-82
2022/05/31 14:03:41;;;;;;;4.38;3.05;;;;;;;;;;5137958;27;20484;-82
2022/05/31 14:06:30;;;;;;;4.63;3.25;;;;;;;;;;5143418;27;20055;-83
2022/05/31 14:09:30;;;;;;;4.18;2.92;;;;;;;;;;5144776;27;20039;-82
2022/05/31 14:12:18;;;;;;;7.18;4.90;;;;;;;;;;5144791;27;20047;-81
2022/05/31 14:15:05;;;;;;;6.28;3.80;;;;;;;;;;5137425;27;20224;-81
2022/05/31 14:17:50;;;;;;;7.57;3.78;;;;;;;;;;5144309;27;20043;-81
2022/05/31 14:20:38;;;;;;;5.57;3.50;;;;;;;;;;5137208;27;20047;-82
2022/05/31 14:23:25;;;;;;;6.47;4.00;;;;;;;;;;5145152;27;20039;-81
2022/05/31 14:26:12;;;;;;;6.53;4.10;;;;;;;;;;5128783;27;20035;-81
2022/05/31 14:29:39;;;;;;;7.07;3.88;;;;;;;;;;5143711;27;20042;-81
2022/05/31 14:32:43;;;;;;;5.97;3.65;;;;;;;;;;5144258;27;20051;-81
2022/05/31 14:35:35;;;;;;;8.38;5.07;;;;;;;;;;5144391;27;20043;-82
2022/05/31 14:38:32;;;;;;;14.70;7.97;;;;;;;;;;5138076;27;20395;-82
2022/05/31 14:41:31;;;;;;;5.93;3.80;;;;;;;;;;5137368;27;20392;-81
2022/05/31 14:44:50;;;;;;;5.53;3.65;;;;;;;;;;5143423;27;20379;-81
2022/05/31 14:47:38;;;;;;;7.68;3.80;;;;;;;;;;5143426;27;20475;-80
2022/05/31 14:50:27;;;;;;;7.93;4.28;;;;;;;;;;5136596;27;20039;-81
2022/05/31 14:53:16;;;;;;;7.38;4.47;;;;;;;;;;5143775;27;20043;-80
2022/05/31 14:56:04;;;;;;;7.85;4.22;;;;;;;;;;5143321;27;20404;-81
2022/05/31 14:59:03;;;;;;;6.95;4.38;;;;;;;;;;5143505;27;20047;-80
2022/05/31 15:01:53;;;;;;;7.03;4.55;;;;;;;;;;5136685;27;20487;-80
2022/05/31 15:04:54;;;;;;;8.93;5.07;;;;;;;;;;5143568;27;20051;-77
2022/05/31 15:07:56;;;;;;;5.70;3.95;;;;;;;;;;5140520;27;20043;-79
2022/05/31 15:10:52;;;;;;;8.27;3.72;;;;;;;;;;5146628;27;20035;-79
2022/05/31 15:19:41;;;;;;;6.75;3.55;;;;;;;;;;5140684;27;20035;-78
2022/05/31 15:22:27;;;;;;;5.80;4.13;;;;;;;;;;5148426;27;20043;-79
2022/05/31 15:25:24;;;;;;;5.15;3.60;;;;;;;;;;5140775;27;20043;-78
2022/05/31 15:28:10;;;;;;;12.65;4.35;;;;;;;;;;5147166;27;20051;-79
2022/05/31 15:30:56;;;;;;;7.80;3.88;;;;;;;;;;5147472;27;20043;-79
2022/05/31 15:33:40;;;;;;;7.65;4.03;;;;;;;;;;5141920;27;20047;-79
2022/05/31 15:36:28;;;;;;;5.75;3.70;;;;;;;;;;5141675;27;20039;-79
2022/05/31 15:39:16;;;;;;;9.65;4.28;;;;;;;;;;5141017;27;20051;-79
2022/05/31 15:42:03;;;;;;;7.85;3.88;;;;;;;;;;5142623;27;20054;-79
2022/05/31 15:44:49;;;;;;;9.98;3.60;;;;;;;;;;5140410;27;20039;-78
2022/05/31 15:47:35;;;;;;;8.75;3.72;;;;;;;;;;5140578;27;20411;-78
2022/05/31 15:50:21;;;;;;;8.13;5.35;;;;;;;;;;5144693;27;20484;-79
2022/05/31 15:53:06;;;;;;;10.25;3.78;;;;;;;;;;5143653;27;20069;-78
2022/05/31 15:55:52;;;;;;;6.70;3.78;;;;;;;;;;5144931;27;20047;-78
2022/05/31 15:58:38;;;;;;;5.35;3.50;;;;;;;;;;5135034;27;20047;-81
2022/05/31 16:01:23;;;;;;;7.35;3.15;;;;;;;;;;5135697;27;20043;-81
2022/05/31 16:04:09;;;;;;;5.72;2.83;;;;;;;;;;5135425;27;20043;-81
2022/05/31 16:06:55;;;;;;;12.63;4.07;;;;;;;;;;5134524;27;20055;-81
2022/05/31 16:09:43;;;;;;;8.05;3.90;;;;;;;;;;5119778;27;20396;-81
2022/05/31 16:12:29;;;;;;;7.50;3.63;;;;;;;;;;5135394;27;20484;-82
2022/05/31 16:15:15;;;;;;;10.25;4.05;;;;;;;;;;5133867;27;20043;-83
2022/05/31 16:18:01;;;;;;;10.90;4.15;;;;;;;;;;5141380;27;20043;-78
2022/05/31 16:20:46;;;;;;;7.95;3.40;;;;;;;;;;5141679;27;20055;-78
2022/05/31 16:23:35;;;;;;;7.10;3.55;;;;;;;;;;5141743;27;20034;-76
2022/05/31 16:26:20;;;;;;;9.93;4.50;;;;;;;;;;5118835;27;20479;-77
2022/05/31 16:29:08;;;;;;;5.35;3.70;;;;;;;;;;5134710;27;20389;-77
2022/05/31 16:31:52;;;;;;;6.82;3.65;;;;;;;;;;5134650;27;20491;-77
2022/05/31 16:34:40;;;;;;;5.93;3.55;;;;;;;;;;5118684;27;20034;-76
2022/05/31 16:43:47;;;;;;;242.98;118.35;;;;;;;;;;5140486;27;20051;-76
2022/05/31 16:46:35;;;;;;;29.05;13.25;;;;;;;;;;5134086;27;20035;-76
2022/05/31 16:49:21;;;;;;;38.72;18.25;;;;;;;;;;5141329;27;20046;-77
2022/05/31 16:52:06;;;;;;;6.60;4.35;;;;;;;;;;5141491;27;20072;-77
2022/05/31 16:54:53;;;;;;;7.63;4.50;;;;;;;;;;5142633;27;20043;-79
2022/05/31 16:57:39;;;;;;;48.33;22.75;;;;;;;;;;5143149;27;20387;-78
2022/05/31 17:00:25;;;;;;;24.00;11.35;;;;;;;;;;5137529;28;20039;-77
2022/05/31 17:03:10;;;;;;;10.23;5.93;;;;;;;;;;5128446;27;20468;-78
2022/05/31 17:05:55;;;;;;;7.10;4.53;;;;;;;;;;5134440;28;20419;-77
2022/05/31 17:14:49;;;;;;;7.57;3.95;;;;;;;;;;5129396;27;20047;-77
2022/05/31 17:17:35;;;;;;;10.10;4.22;;;;;;;;;;5143403;27;20047;-78
2022/05/31 17:20:24;;;;;;;7.80;4.50;;;;;;;;;;5138608;27;20031;-77
2022/05/31 17:23:19;;;;;;;10.50;5.00;;;;;;;;;;5138501;27;20050;-80
2022/05/31 17:26:08;;;;;;;8.30;4.47;;;;;;;;;;5145291;27;20043;-81
2022/05/31 17:28:56;;;;;;;13.02;4.70;;;;;;;;;;5138467;27;20039;-80
2022/05/31 17:31:42;;;;;;;8.48;3.80;;;;;;;;;;5145624;27;20480;-80
2022/05/31 17:34:27;;;;;;;13.43;5.70;;;;;;;;;;5138268;27;20043;-81
2022/05/31 17:37:13;;;;;;;20.77;4.70;;;;;;;;;;5144993;27;20483;-79
2022/05/31 17:40:00;;;;;;;13.20;3.72;;;;;;;;;;5145396;27;20035;-79
2022/05/31 17:42:46;;;;;;;12.40;4.00;;;;;;;;;;5145079;27;20051;-79
2022/05/31 17:45:32;;;;;;;10.18;5.60;;;;;;;;;;5137987;27;20479;-81
2022/05/31 17:48:22;;;;;;;12.02;4.38;;;;;;;;;;5137529;27;20035;-79
2022/05/31 17:51:12;;;;;;;15.07;3.65;;;;;;;;;;5136048;27;20054;-79
2022/05/31 17:53:58;;;;;;;19.00;4.28;;;;;;;;;;5137348;27;20031;-81
2022/05/31 17:56:43;;;;;;;9.02;4.50;;;;;;;;;;5144353;27;20491;-81
2022/05/31 17:59:29;;;;;;;11.35;4.32;;;;;;;;;;5143076;27;20039;-79
2022/05/31 18:02:14;;;;;;;9.45;4.82;;;;;;;;;;5144771;27;20051;-79
2022/05/31 18:05:00;;;;;;;12.75;4.43;;;;;;;;;;5137755;27;20035;-76
2022/05/31 18:07:45;;;;;;;11.40;4.78;;;;;;;;;;5139231;27;20055;-77
2022/05/31 18:10:31;;;;;;;12.25;4.97;;;;;;;;;;5144440;27;20431;-78
2022/05/31 18:13:18;;;;;;;17.55;5.43;;;;;;;;;;5144399;27;20043;-78